Time;durP1;ratioP1;P1;durP2;ratioP2;P2;SDS_P1;SDS_P2;PMS_P1;PMS_P2;Temp;Humidity;BMP_temperature;BMP_pressure;BME280_temperature;BME280_humidity;BME280_pressure;Samples;Min_cycle;Max_cycle;Signal;HPM_P1;HPM_P2
2021/04/22 00:00:24;;;;;;;12.75;11.45;;;;;;;9.24;74.03;99612.74;1732738;82;22629;-60
2021/04/22 00:02:52;;;;;;;16.60;12.18;;;;;;;9.29;73.97;99615.52;1733333;81;21651;-62
2021/04/22 00:05:33;;;;;;;14.90;12.78;;;;;;;9.35;73.85;99617.76;1715083;82;21137;-61
2021/04/22 00:08:02;;;;;;;17.67;13.43;;;;;;;9.39;73.67;99625.08;1704875;84;21160;-61
2021/04/22 00:10:47;;;;;;;16.62;13.95;;;;;;;9.40;73.54;99622.66;1678574;84;21148;-63
2021/04/22 00:13:18;;;;;;;15.03;13.43;;;;;;;9.41;73.51;99624.81;1704950;84;22695;-60
2021/04/22 00:15:48;;;;;;;16.45;14.60;;;;;;;9.39;73.47;99621.05;1729075;82;21138;-59
2021/04/22 00:18:17;;;;;;;16.52;14.90;;;;;;;9.38;73.59;99613.23;1734394;82;21134;-61
2021/04/22 00:20:45;;;;;;;16.82;14.38;;;;;;;9.35;73.50;99611.83;1707106;82;21690;-63
2021/04/22 00:23:14;;;;;;;21.48;15.20;;;;;;;9.34;73.56;99614.26;1734345;82;21198;-62
2021/04/22 00:25:44;;;;;;;19.12;16.35;;;;;;;9.34;73.59;99614.78;1688210;82;21267;-62
2021/04/22 00:28:13;;;;;;;19.87;15.48;;;;;;;9.36;73.71;99618.02;1734351;82;21205;-64
2021/04/22 00:30:45;;;;;;;20.65;14.78;;;;;;;9.40;73.65;99616.50;1734540;82;21039;-61
2021/04/22 00:33:16;;;;;;;18.82;15.28;;;;;;;9.41;73.58;99617.58;1734763;82;21181;-64
2021/04/22 00:35:45;;;;;;;19.02;15.20;;;;;;;9.44;73.52;99625.16;1712840;81;21222;-63
2021/04/22 00:38:13;;;;;;;16.95;15.23;;;;;;;9.46;73.42;99619.53;1709303;82;21446;-61
2021/04/22 00:40:42;;;;;;;17.07;15.00;;;;;;;9.46;73.37;99621.69;1694648;84;21145;-64
2021/04/22 00:43:15;;;;;;;17.75;14.25;;;;;;;9.45;73.35;99633.48;1671189;84;21015;-61
2021/04/22 00:45:44;;;;;;;18.00;14.50;;;;;;;9.44;73.38;99627.84;1715986;81;21179;-63
2021/04/22 00:48:14;;;;;;;14.20;12.70;;;;;;;9.42;73.48;99629.95;1705149;83;21614;-62
2021/04/22 00:50:45;;;;;;;15.10;13.50;;;;;;;9.40;73.55;99629.36;1743322;82;22193;-62
2021/04/22 00:53:13;;;;;;;14.80;13.22;;;;;;;9.38;73.66;99635.52;1717401;82;21209;-61
2021/04/22 00:55:42;;;;;;;15.68;12.82;;;;;;;9.40;73.75;99632.61;1720635;82;21067;-65
2021/04/22 00:58:11;;;;;;;16.82;15.00;;;;;;;9.43;73.72;99636.13;1714280;82;21586;-63
2021/04/22 01:00:46;;;;;;;15.18;13.60;;;;;;;9.45;73.69;99636.69;1688179;83;21184;-61
2021/04/22 01:03:14;;;;;;;17.40;14.07;;;;;;;9.48;73.59;99644.27;1708612;83;22171;-64
2021/04/22 01:05:45;;;;;;;17.32;14.05;;;;;;;9.50;73.48;99640.27;1735873;81;21177;-62
2021/04/22 01:08:13;;;;;;;16.52;14.07;;;;;;;9.49;73.42;99639.20;1743636;81;21165;-63
2021/04/22 01:10:43;;;;;;;16.32;14.18;;;;;;;9.46;73.43;99633.77;1727208;81;21015;-66
2021/04/22 01:13:14;;;;;;;17.73;13.05;;;;;;;9.43;73.48;99630.23;1753792;81;21136;-64
2021/04/22 01:15:42;;;;;;;16.00;14.20;;;;;;;9.40;73.57;99630.70;1710849;81;21221;-64
2021/04/22 01:18:10;;;;;;;16.42;14.13;;;;;;;9.37;73.65;99630.39;1741083;82;21166;-66
2021/04/22 01:20:46;;;;;;;17.23;14.23;;;;;;;9.36;73.74;99639.49;1712594;83;21637;-64
2021/04/22 01:23:15;;;;;;;15.58;13.95;;;;;;;9.38;73.78;99645.44;1742184;81;21211;-63
2021/04/22 01:25:47;;;;;;;14.20;12.70;;;;;;;9.41;73.86;99646.29;1714200;82;21033;-65
2021/04/22 01:28:18;;;;;;;14.70;13.10;;;;;;;9.43;73.79;99645.00;1688939;83;21927;-66
2021/04/22 01:30:54;;;;;;;17.50;13.03;;;;;;;9.43;73.73;99646.88;1671112;84;21199;-66
2021/04/22 01:33:27;;;;;;;18.50;13.50;;;;;;;9.39;73.76;99645.20;1707734;82;21204;-66
2021/04/22 01:35:57;;;;;;;19.60;13.10;;;;;;;9.38;73.80;99645.44;1738731;81;21132;-66
2021/04/22 01:38:26;;;;;;;14.85;12.18;;;;;;;9.34;73.85;99645.13;1732342;81;21156;-65
2021/04/22 01:40:55;;;;;;;15.90;13.30;;;;;;;9.31;73.95;99652.83;1707576;83;21201;-65
2021/04/22 01:43:26;;;;;;;12.85;11.43;;;;;;;9.26;74.02;99648.19;1695431;83;21209;-65
2021/04/22 01:45:54;;;;;;;14.20;11.85;;;;;;;9.21;74.19;99645.41;1742655;81;21215;-65
2021/04/22 01:48:23;;;;;;;14.87;11.78;;;;;;;9.16;74.32;99644.80;1755257;81;21576;-66
2021/04/22 01:50:52;;;;;;;13.72;11.48;;;;;;;9.13;74.51;99645.29;1702932;83;21589;-65
2021/04/22 01:53:20;;;;;;;14.98;11.80;;;;;;;9.12;74.63;99646.86;1675044;83;21165;-64
2021/04/22 01:55:50;;;;;;;16.25;12.80;;;;;;;9.13;74.79;99649.84;1718190;80;21153;-65
2021/04/22 01:58:22;;;;;;;15.65;10.93;;;;;;;9.13;74.90;99647.97;1773914;80;21013;-64
2021/04/22 02:00:56;;;;;;;15.38;12.75;;;;;;;9.14;74.86;99646.11;1755783;81;21168;-65
2021/04/22 02:03:26;;;;;;;12.98;11.60;;;;;;;9.12;74.93;99642.84;1728866;82;21487;-65
2021/04/22 02:05:55;;;;;;;14.53;12.33;;;;;;;9.10;74.96;99649.81;1741877;82;21271;-64
2021/04/22 02:08:24;;;;;;;16.65;13.15;;;;;;;9.07;75.00;99652.14;1734420;81;21196;-64
2021/04/22 02:10:52;;;;;;;18.77;14.03;;;;;;;9.01;75.17;99647.75;1759473;81;21141;-65
2021/04/22 02:13:24;;;;;;;19.40;13.50;;;;;;;8.95;75.34;99650.05;1767857;80;21189;-66
2021/04/22 02:15:52;;;;;;;13.03;11.28;;;;;;;8.90;75.55;99644.59;1786813;80;21141;-64
2021/04/22 02:18:20;;;;;;;14.78;12.20;;;;;;;8.90;75.75;99645.92;1786723;80;22352;-64
2021/04/22 02:20:49;;;;;;;13.20;11.08;;;;;;;8.91;75.77;99637.66;1786758;80;21168;-66
2021/04/22 02:23:19;;;;;;;16.07;12.43;;;;;;;8.94;75.77;99639.02;1763801;80;21585;-65
2021/04/22 02:25:48;;;;;;;12.13;10.88;;;;;;;8.96;75.72;99641.77;1755616;80;21200;-64
2021/04/22 02:28:17;;;;;;;15.35;10.75;;;;;;;8.98;75.65;99640.17;1755198;81;21170;-67
2021/04/22 02:30:46;;;;;;;13.95;11.60;;;;;;;8.97;75.56;99639.91;1762976;81;22039;-66
2021/04/22 02:33:17;;;;;;;12.23;11.03;;;;;;;8.97;75.50;99642.03;1761417;81;21172;-65
2021/04/22 02:35:49;;;;;;;15.78;12.33;;;;;;;8.97;75.45;99648.74;1755598;81;21100;-65
2021/04/22 02:38:18;;;;;;;15.48;11.65;;;;;;;8.96;75.40;99639.09;1758332;81;21180;-65
2021/04/22 02:40:47;;;;;;;20.80;16.48;;;;;;;8.95;75.43;99646.02;1698257;83;21124;-65
2021/04/22 02:43:18;;;;;;;14.30;12.00;;;;;;;8.95;75.44;99647.37;1704761;83;22167;-67
2021/04/22 02:45:50;;;;;;;13.65;12.25;;;;;;;8.97;75.43;99644.72;1713191;83;21159;-65
2021/04/22 02:48:20;;;;;;;16.82;13.03;;;;;;;9.01;75.38;99644.55;1713456;82;21185;-64
2021/04/22 02:50:53;;;;;;;14.33;12.82;;;;;;;9.06;75.30;99641.14;1713188;83;21257;-65
2021/04/22 02:53:21;;;;;;;14.25;12.75;;;;;;;9.09;75.14;99644.67;1725505;82;21133;-63
2021/04/22 02:55:51;;;;;;;16.23;12.23;;;;;;;9.09;75.05;99644.67;1715744;82;21662;-65
2021/04/22 02:58:23;;;;;;;18.20;13.25;;;;;;;9.10;74.94;99644.44;1742361;82;21154;-65
2021/04/22 03:00:52;;;;;;;14.28;12.30;;;;;;;9.09;74.92;99652.72;1740033;81;21595;-65
2021/04/22 03:03:19;;;;;;;14.68;13.13;;;;;;;9.05;74.92;99651.58;1713336;82;21615;-66
2021/04/22 03:05:48;;;;;;;15.88;11.85;;;;;;;9.01;75.03;99653.12;1742903;82;21563;-65
2021/04/22 03:08:17;;;;;;;15.03;12.78;;;;;;;8.97;75.16;99664.05;1742895;82;21193;-66
2021/04/22 03:10:46;;;;;;;14.30;11.90;;;;;;;8.92;75.23;99661.27;1715823;82;21213;-66
2021/04/22 03:13:14;;;;;;;14.55;12.43;;;;;;;8.89;75.42;99660.38;1741831;82;21216;-66
2021/04/22 03:15:43;;;;;;;11.95;10.68;;;;;;;8.87;75.62;99667.88;1736376;82;21169;-63
2021/04/22 03:18:12;;;;;;;16.12;12.33;;;;;;;8.86;75.74;99666.23;1724509;82;21765;-64
2021/04/22 03:20:41;;;;;;;13.60;11.75;;;;;;;8.88;75.73;99671.64;1713582;83;21161;-64
2021/04/22 03:23:10;;;;;;;15.90;12.78;;;;;;;8.91;75.70;99669.02;1737306;81;21189;-65
2021/04/22 03:25:38;;;;;;;15.83;14.13;;;;;;;8.91;75.63;99670.36;1715987;82;21640;-65
2021/04/22 03:28:06;;;;;;;14.20;12.70;;;;;;;8.89;75.67;99675.95;1715803;82;21243;-65
2021/04/22 03:30:35;;;;;;;14.05;12.55;;;;;;;8.86;75.70;99674.28;1742873;82;21178;-66
2021/04/22 03:33:03;;;;;;;12.35;11.00;;;;;;;8.85;75.73;99674.81;1740451;81;22472;-64
2021/04/22 03:35:31;;;;;;;17.40;12.58;;;;;;;8.83;75.79;99680.11;1716464;82;21149;-64
2021/04/22 03:38:00;;;;;;;13.88;11.95;;;;;;;8.78;75.88;99670.66;1750492;81;21209;-65
2021/04/22 03:40:29;;;;;;;13.95;11.73;;;;;;;8.79;76.01;99678.95;1761659;81;21153;-66
2021/04/22 03:42:57;;;;;;;19.07;12.88;;;;;;;8.78;76.14;99678.14;1744603;81;21232;-63
2021/04/22 03:45:25;;;;;;;14.87;12.35;;;;;;;8.81;76.07;99684.39;1747889;80;22119;-65
2021/04/22 03:47:54;;;;;;;11.45;10.05;;;;;;;8.84;76.03;99685.77;1764027;81;21208;-63
2021/04/22 03:50:22;;;;;;;16.50;11.93;;;;;;;8.83;76.04;99688.16;1718131;81;21598;-64
2021/04/22 03:52:50;;;;;;;13.93;12.43;;;;;;;8.83;76.03;99693.52;1757765;81;21152;-64
2021/04/22 03:55:19;;;;;;;13.60;12.13;;;;;;;8.81;76.01;99696.45;1754101;80;21227;-63
2021/04/22 03:57:47;;;;;;;14.65;12.10;;;;;;;8.78;76.10;99698.81;1760846;81;21518;-63
2021/04/22 04:00:18;;;;;;;13.95;11.43;;;;;;;8.74;76.15;99699.78;1765351;81;21669;-63
2021/04/22 04:02:46;;;;;;;13.03;11.65;;;;;;;8.70;76.25;99703.48;1727155;82;21590;-63
2021/04/22 04:05:16;;;;;;;14.05;12.07;;;;;;;8.66;76.39;99709.03;1729552;81;21200;-63
2021/04/22 04:07:44;;;;;;;15.13;11.95;;;;;;;8.68;76.48;99710.92;1736676;81;21204;-64
2021/04/22 04:10:12;;;;;;;15.23;11.78;;;;;;;8.70;76.53;99714.72;1738834;81;22197;-64
2021/04/22 04:12:40;;;;;;;15.68;14.07;;;;;;;8.74;76.48;99723.39;1757909;81;21165;-64
2021/04/22 04:15:11;;;;;;;17.95;13.08;;;;;;;8.76;76.43;99724.51;1756759;80;21191;-63
2021/04/22 04:17:39;;;;;;;15.35;12.37;;;;;;;8.78;76.31;99719.70;1750399;81;21054;-63
2021/04/22 04:20:09;;;;;;;15.55;13.53;;;;;;;8.75;76.27;99714.83;1728356;81;21173;-65
2021/04/22 04:22:38;;;;;;;14.35;11.97;;;;;;;8.75;76.27;99721.53;1735399;81;21325;-64
2021/04/22 04:25:07;;;;;;;13.50;12.25;;;;;;;8.74;76.26;99723.39;1755712;81;21164;-64
2021/04/22 04:27:36;;;;;;;11.73;10.50;;;;;;;8.73;76.26;99723.09;1739220;81;21590;-64
2021/04/22 04:30:06;;;;;;;15.63;11.63;;;;;;;8.72;76.43;99730.88;1745810;81;21176;-66
2021/04/22 04:32:35;;;;;;;13.60;11.00;;;;;;;8.71;76.43;99731.10;1757724;81;21133;-64
2021/04/22 04:35:04;;;;;;;15.78;12.33;;;;;;;8.73;76.49;99735.16;1757807;81;21374;-65
2021/04/22 04:37:32;;;;;;;19.00;13.08;;;;;;;8.73;76.53;99732.48;1757060;81;21144;-63
2021/04/22 04:40:01;;;;;;;18.73;13.40;;;;;;;8.72;76.54;99736.23;1715224;81;21160;-63
2021/04/22 04:42:29;;;;;;;15.83;13.98;;;;;;;8.72;76.54;99736.77;1693349;83;21626;-66
2021/04/22 04:44:57;;;;;;;14.63;12.05;;;;;;;8.75;76.54;99745.66;1709676;83;21241;-65
2021/04/22 04:47:25;;;;;;;17.05;13.60;;;;;;;8.81;76.47;99743.91;1713125;83;22701;-66
2021/04/22 04:49:54;;;;;;;18.00;16.07;;;;;;;8.83;76.34;99742.61;1709425;83;21174;-65
2021/04/22 04:52:25;;;;;;;13.25;11.88;;;;;;;8.85;76.35;99742.37;1712655;83;21153;-63
2021/04/22 04:54:54;;;;;;;15.00;13.30;;;;;;;8.89;76.30;99753.73;1712543;83;21226;-64
2021/04/22 04:57:22;;;;;;;19.42;16.25;;;;;;;8.93;76.21;99752.72;1743413;80;22127;-65
2021/04/22 04:59:51;;;;;;;21.97;15.40;;;;;;;8.98;76.19;99744.26;1760681;80;22835;-65
2021/04/22 05:02:19;;;;;;;21.20;15.08;;;;;;;9.03;76.09;99750.25;1772115;80;21558;-65
2021/04/22 05:04:46;;;;;;;17.23;15.03;;;;;;;9.08;76.01;99753.03;1758351;80;21173;-64
2021/04/22 05:07:15;;;;;;;23.55;15.88;;;;;;;9.11;75.92;99751.23;1733134;81;21085;-64
2021/04/22 05:09:43;;;;;;;19.95;15.88;;;;;;;9.14;75.88;99752.91;1743485;82;21160;-64
2021/04/22 05:12:11;;;;;;;21.25;15.00;;;;;;;9.20;75.83;99757.84;1743380;82;21381;-65
2021/04/22 05:14:39;;;;;;;21.25;14.83;;;;;;;9.29;75.73;99756.94;1730861;81;21224;-64
2021/04/22 05:17:08;;;;;;;16.52;14.83;;;;;;;9.36;75.44;99758.41;1740912;80;21201;-65
2021/04/22 05:19:37;;;;;;;18.40;15.45;;;;;;;9.44;75.23;99758.56;1742563;82;21189;-63
2021/04/22 05:22:06;;;;;;;20.43;15.23;;;;;;;9.49;74.94;99750.61;1739192;80;21645;-63
2021/04/22 05:24:34;;;;;;;21.87;16.02;;;;;;;9.55;74.70;99749.09;1738478;82;22895;-63
2021/04/22 05:27:02;;;;;;;17.00;15.28;;;;;;;9.61;74.35;99750.82;1738315;82;21136;-64
2021/04/22 05:29:31;;;;;;;14.55;13.13;;;;;;;9.66;74.17;99760.84;1738538;82;21180;-63
2021/04/22 05:31:58;;;;;;;20.52;16.48;;;;;;;9.69;73.36;99758.21;1738340;82;21140;-64
2021/04/22 05:34:27;;;;;;;19.77;16.57;;;;;;;9.69;73.38;99753.62;1724524;82;21133;-64
2021/04/22 05:36:55;;;;;;;25.00;17.30;;;;;;;9.74;73.41;99757.74;1710326;80;21372;-64
2021/04/22 05:39:22;;;;;;;21.48;17.10;;;;;;;9.82;73.21;99763.27;1752342;81;21570;-64
2021/04/22 05:41:50;;;;;;;25.50;18.55;;;;;;;9.91;73.02;99758.59;1759424;81;21121;-65
2021/04/22 05:44:19;;;;;;;22.42;17.55;;;;;;;9.98;72.84;99759.23;1758312;81;21046;-64
2021/04/22 05:46:47;;;;;;;21.33;16.50;;;;;;;10.07;72.57;99758.31;1758407;81;21129;-63
2021/04/22 05:49:15;;;;;;;20.25;15.98;;;;;;;10.14;72.21;99762.98;1758263;81;22378;-63
2021/04/22 05:51:44;;;;;;;22.85;17.90;;;;;;;10.17;72.04;99768.44;1758267;81;21440;-64
2021/04/22 05:54:12;;;;;;;26.05;19.30;;;;;;;10.20;71.91;99761.22;1757947;81;21164;-63
2021/04/22 05:56:40;;;;;;;21.40;19.23;;;;;;;10.24;71.75;99758.32;1767914;81;21596;-68
2021/04/22 05:59:08;;;;;;;19.55;14.07;;;;;;;10.28;71.53;99768.33;1753248;81;21149;-65
2021/04/22 06:01:36;;;;;;;24.52;18.67;;;;;;;10.34;71.33;99761.16;1733695;81;21210;-63
2021/04/22 06:04:06;;;;;;;22.80;16.75;;;;;;;10.39;71.32;99767.96;1756146;81;21050;-65
2021/04/22 06:06:35;;;;;;;19.35;17.30;;;;;;;10.45;71.09;99770.45;1756141;81;21153;-63
2021/04/22 06:09:04;;;;;;;21.12;16.80;;;;;;;10.52;70.80;99766.27;1756224;81;21169;-63
2021/04/22 06:11:32;;;;;;;19.25;17.20;;;;;;;10.63;70.47;99773.42;1731221;81;21161;-63
2021/04/22 06:14:01;;;;;;;17.05;14.30;;;;;;;10.71;70.05;99772.17;1754694;81;22008;-63
2021/04/22 06:16:28;;;;;;;20.25;18.12;;;;;;;10.76;69.52;99774.41;1768110;81;21225;-63
2021/04/22 06:18:56;;;;;;;24.82;16.80;;;;;;;10.79;69.56;99775.80;1753207;81;21205;-64
2021/04/22 06:21:24;;;;;;;18.00;15.13;;;;;;;10.86;69.54;99774.54;1765358;80;21468;-63
2021/04/22 06:23:52;;;;;;;18.45;15.30;;;;;;;10.92;69.26;99780.80;1758328;81;21590;-63
2021/04/22 06:26:22;;;;;;;20.20;18.02;;;;;;;10.97;68.78;99783.56;1758245;81;22438;-64
2021/04/22 06:28:53;;;;;;;20.30;17.52;;;;;;;10.96;68.80;99781.11;1756375;81;21172;-65
2021/04/22 06:31:20;;;;;;;18.55;15.70;;;;;;;10.97;68.70;99779.52;1758388;81;21002;-64
2021/04/22 06:33:49;;;;;;;19.90;15.23;;;;;;;11.00;68.74;99773.63;1758294;81;21169;-66
2021/04/22 06:36:19;;;;;;;16.15;14.47;;;;;;;11.06;68.71;99782.06;1753045;81;21176;-64
2021/04/22 06:38:48;;;;;;;19.12;16.37;;;;;;;11.11;68.51;99774.05;1731592;81;21206;-65
2021/04/22 06:41:17;;;;;;;19.02;16.45;;;;;;;11.13;68.12;99776.46;1738076;80;21637;-66
2021/04/22 06:43:46;;;;;;;22.82;17.57;;;;;;;11.19;68.32;99776.81;1722802;81;21062;-66
2021/04/22 06:46:15;;;;;;;35.55;18.12;;;;;;;11.27;68.25;99779.08;1721939;82;22310;-64
2021/04/22 06:48:45;;;;;;;18.02;16.07;;;;;;;11.35;67.93;99778.09;1708907;84;21290;-68
2021/04/22 06:51:13;;;;;;;20.32;12.50;;;;;;;11.50;67.58;99783.36;1736240;82;21213;-65
2021/04/22 06:53:42;;;;;;;16.57;14.98;;;;;;;11.67;66.92;99784.88;1736410;82;21146;-65
2021/04/22 06:56:11;;;;;;;13.83;12.20;;;;;;;11.81;66.32;99785.31;1745182;81;21157;-65
2021/04/22 06:58:40;;;;;;;15.10;11.83;;;;;;;11.96;65.36;99783.28;1742426;82;21153;-65
2021/04/22 07:01:08;;;;;;;21.45;13.28;;;;;;;12.07;64.53;99784.48;1741606;82;21125;-63
2021/04/22 07:03:38;;;;;;;19.25;15.38;;;;;;;12.20;64.77;99777.83;1742188;82;21039;-65
2021/04/22 07:06:06;;;;;;;19.95;14.90;;;;;;;12.32;64.26;99785.75;1713550;82;21373;-64
2021/04/22 07:08:35;;;;;;;12.28;10.45;;;;;;;12.43;63.24;99790.13;1724987;83;21188;-65
2021/04/22 07:11:04;;;;;;;13.40;10.43;;;;;;;12.50;62.62;99787.49;1699941;83;21654;-65
2021/04/22 07:13:32;;;;;;;13.83;11.40;;;;;;;12.58;62.38;99779.44;1725023;83;21157;-65
2021/04/22 07:15:59;;;;;;;12.15;10.85;;;;;;;12.66;62.43;99785.71;1728323;81;22414;-64
2021/04/22 07:18:27;;;;;;;15.58;11.55;;;;;;;12.74;62.48;99785.21;1750973;81;21665;-66
2021/04/22 07:20:55;;;;;;;12.03;10.30;;;;;;;12.88;62.41;99788.25;1720472;81;21598;-66
2021/04/22 07:23:24;;;;;;;15.25;13.03;;;;;;;13.03;62.08;99786.44;1753144;81;21130;-65
2021/04/22 07:25:51;;;;;;;13.50;10.18;;;;;;;13.19;61.39;99788.67;1753241;81;21192;-66
2021/04/22 07:28:19;;;;;;;13.22;11.70;;;;;;;13.33;60.69;99784.97;1768818;81;22108;-66
2021/04/22 07:30:47;;;;;;;9.53;8.23;;;;;;;13.48;60.37;99794.44;1768834;81;21215;-64
2021/04/22 07:33:16;;;;;;;14.20;9.40;;;;;;;13.62;59.59;99800.96;1768714;81;21173;-63
2021/04/22 07:35:43;;;;;;;14.13;12.63;;;;;;;13.77;59.24;99796.13;1764299;80;21157;-67
2021/04/22 07:38:13;;;;;;;11.38;9.63;;;;;;;13.86;58.43;99798.59;1749988;81;21236;-65
2021/04/22 07:40:42;;;;;;;13.68;9.95;;;;;;;13.95;58.26;99799.69;1725365;81;21118;-63
2021/04/22 07:43:10;;;;;;;17.20;15.20;;;;;;;14.02;57.95;99796.70;1768104;81;21156;-64
2021/04/22 07:45:42;;;;;;;12.03;9.58;;;;;;;14.06;57.27;99793.19;1750670;81;21054;-68
2021/04/22 07:48:11;;;;;;;10.30;8.48;;;;;;;14.08;56.76;99793.73;1768337;80;21622;-65
2021/04/22 07:50:41;;;;;;;9.65;8.58;;;;;;;14.16;56.70;99792.38;1768279;80;21180;-65
2021/04/22 07:53:10;;;;;;;15.90;9.28;;;;;;;14.21;56.61;99788.31;1768219;81;21272;-66
2021/04/22 07:55:44;;;;;;;9.28;7.47;;;;;;;14.17;56.00;99785.89;1750537;81;21168;-65
2021/04/22 07:58:16;;;;;;;11.50;7.92;;;;;;;14.13;56.36;99786.98;1760762;81;21693;-64
2021/04/22 08:00:45;;;;;;;15.28;8.03;;;;;;;14.12;55.76;99783.18;1761379;81;21145;-66
2021/04/22 08:03:14;;;;;;;7.47;6.10;;;;;;;14.15;55.38;99785.37;1768251;81;21610;-66
2021/04/22 08:05:44;;;;;;;9.15;7.25;;;;;;;14.22;54.66;99784.00;1768268;81;21370;-65
2021/04/22 08:08:13;;;;;;;8.83;7.92;;;;;;;14.31;54.20;99795.08;1750659;81;21168;-64
2021/04/22 08:10:44;;;;;;;10.40;7.92;;;;;;;14.37;54.24;99789.44;1768162;80;21111;-66
2021/04/22 08:13:14;;;;;;;7.92;7.05;;;;;;;14.44;53.98;99782.91;1767833;81;21177;-64
2021/04/22 08:15:45;;;;;;;6.87;6.17;;;;;;;14.53;53.57;99776.67;1768245;80;21010;-65
2021/04/22 08:18:13;;;;;;;13.60;8.05;;;;;;;14.58;52.79;99781.30;1768301;80;21192;-66
2021/04/22 08:20:41;;;;;;;7.55;6.03;;;;;;;14.63;52.99;99778.01;1759766;81;21246;-64
2021/04/22 08:23:10;;;;;;;7.25;6.17;;;;;;;14.69;52.52;99778.27;1750776;81;21634;-70
2021/04/22 08:25:46;;;;;;;10.00;6.97;;;;;;;14.77;52.83;99771.50;1768329;81;21137;-63
2021/04/22 08:28:18;;;;;;;8.68;6.42;;;;;;;14.89;52.34;99773.89;1750984;81;21189;-65
2021/04/22 08:30:54;;;;;;;7.37;6.60;;;;;;;15.00;52.15;99768.17;1756444;81;21213;-66
2021/04/22 08:33:23;;;;;;;7.87;5.67;;;;;;;15.10;50.62;99770.84;1754795;81;21180;-65
2021/04/22 08:35:52;;;;;;;7.17;5.83;;;;;;;15.19;50.30;99778.66;1755014;81;21058;-65
2021/04/22 08:38:20;;;;;;;9.98;6.67;;;;;;;15.28;49.97;99756.66;1729357;81;21518;-66
2021/04/22 08:40:48;;;;;;;11.97;6.58;;;;;;;15.36;49.55;99776.94;1735537;81;21125;-64
2021/04/22 08:43:16;;;;;;;6.45;5.67;;;;;;;15.43;48.77;99761.19;1754346;81;21496;-68
2021/04/22 08:45:45;;;;;;;6.47;5.33;;;;;;;15.53;48.94;99769.30;1754966;81;21058;-65
2021/04/22 08:48:13;;;;;;;7.72;5.87;;;;;;;15.63;48.18;99761.65;1755086;81;21638;-64
2021/04/22 08:50:42;;;;;;;6.03;4.92;;;;;;;15.73;48.38;99770.27;1727439;81;21165;-66
2021/04/22 08:53:20;;;;;;;8.05;5.92;;;;;;;15.81;47.01;99756.09;1762695;81;21153;-66
2021/04/22 08:55:48;;;;;;;7.95;5.67;;;;;;;15.89;47.26;99756.84;1768447;80;22381;-64
2021/04/22 08:58:16;;;;;;;7.92;4.97;;;;;;;16.00;46.21;99758.39;1767389;80;21617;-67
2021/04/22 09:00:54;;;;;;;6.90;6.08;;;;;;;16.07;45.41;99755.59;1759188;81;21038;-66
2021/04/22 09:03:22;;;;;;;9.73;7.22;;;;;;;16.11;45.75;99751.80;1704942;81;21201;-64
2021/04/22 09:05:50;;;;;;;5.85;5.25;;;;;;;16.16;45.72;99753.66;1755484;81;21141;-64
2021/04/22 09:08:20;;;;;;;10.08;6.00;;;;;;;16.20;46.19;99765.55;1755155;81;21211;-64
2021/04/22 09:10:49;;;;;;;6.60;5.90;;;;;;;16.27;46.09;99759.23;1714894;81;21172;-65
2021/04/22 09:13:17;;;;;;;7.85;6.22;;;;;;;16.31;45.83;99752.94;1755014;81;21149;-65
2021/04/22 09:15:48;;;;;;;10.75;5.55;;;;;;;16.36;45.38;99744.75;1755200;81;21157;-66
2021/04/22 09:18:18;;;;;;;9.70;5.17;;;;;;;16.41;44.32;99740.63;1753709;81;21193;-66
2021/04/22 09:20:49;;;;;;;9.65;6.67;;;;;;;16.43;44.68;99747.95;1767946;80;22202;-66
2021/04/22 09:23:25;;;;;;;11.08;5.87;;;;;;;16.48;44.75;99751.98;1749345;81;21567;-66
2021/04/22 09:26:03;;;;;;;6.17;5.53;;;;;;;16.51;44.43;99755.47;1721955;83;21157;-66
2021/04/22 09:28:46;;;;;;;9.40;6.33;;;;;;;16.49;44.54;99745.46;1744057;80;21173;-65
2021/04/22 09:31:27;;;;;;;7.05;5.42;;;;;;;16.50;44.39;99751.13;1764210;81;21121;-64
2021/04/22 09:34:09;;;;;;;6.37;5.45;;;;;;;16.63;44.20;99747.52;1851483;77;23315;-65
2021/04/22 09:36:47;;;;;;;11.20;6.33;;;;;;;16.61;43.80;99746.98;1747878;82;21050;-65
2021/04/22 09:39:24;;;;;;;7.87;5.35;;;;;;;16.61;44.04;99736.93;1789833;79;21341;-64
2021/04/22 09:41:56;;;;;;;7.40;4.83;;;;;;;16.62;43.85;99736.38;1787091;78;21066;-63
2021/04/22 09:44:24;;;;;;;5.45;4.85;;;;;;;16.60;43.18;99722.27;1767532;79;21579;-64
2021/04/22 09:47:10;;;;;;;18.12;5.15;;;;;;;16.61;43.24;99753.77;1788247;78;21186;-64
2021/04/22 09:49:58;;;;;;;6.03;5.42;;;;;;;16.66;43.14;99734.16;1808524;78;20959;-64
2021/04/22 09:52:33;;;;;;;8.30;5.05;;;;;;;16.78;43.01;99728.34;1780199;80;22350;-67
2021/04/22 09:55:01;;;;;;;10.60;6.10;;;;;;;16.93;42.57;99728.94;1818846;78;21007;-65
2021/04/22 09:57:31;;;;;;;7.47;5.10;;;;;;;17.03;42.31;99707.62;1786747;80;21075;-66
2021/04/22 09:59:59;;;;;;;7.03;6.25;;;;;;;17.07;42.32;99735.86;1787016;78;21023;-64
2021/04/22 10:02:27;;;;;;;5.97;5.30;;;;;;;17.17;42.00;99719.97;1787218;78;21193;-66
2021/04/22 10:04:56;;;;;;;6.90;4.90;;;;;;;17.26;42.19;99716.85;1791541;78;22234;-65
2021/04/22 10:07:31;;;;;;;8.98;6.28;;;;;;;17.36;42.08;99727.02;1786939;80;21942;-65
2021/04/22 10:10:13;;;;;;;8.23;6.20;;;;;;;17.48;41.69;99730.66;1756658;80;21642;-66
2021/04/22 10:12:40;;;;;;;7.85;6.10;;;;;;;17.60;41.17;99713.95;1756123;80;21567;-64
2021/04/22 10:15:21;;;;;;;6.62;5.10;;;;;;;17.64;41.21;99714.97;1798257;78;21541;-66
2021/04/22 10:17:56;;;;;;;5.97;5.17;;;;;;;17.62;41.42;99716.61;1783378;80;21307;-65
2021/04/22 10:20:27;;;;;;;6.10;5.47;;;;;;;17.62;41.30;99707.09;1809710;78;21141;-67
2021/04/22 10:22:55;;;;;;;10.88;5.53;;;;;;;17.66;41.33;99718.19;1818251;78;21117;-67
2021/04/22 10:25:27;;;;;;;5.72;4.95;;;;;;;17.72;41.28;99703.41;1787409;79;21144;-68
2021/04/22 10:28:04;;;;;;;6.97;5.65;;;;;;;17.71;41.75;99715.38;1787472;78;21154;-65
2021/04/22 10:30:33;;;;;;;8.18;5.53;;;;;;;17.68;42.12;99709.19;1778340;78;22461;-64
2021/04/22 10:33:01;;;;;;;4.80;4.33;;;;;;;17.47;42.44;99705.92;1783655;79;21161;-63
2021/04/22 10:35:31;;;;;;;5.40;4.83;;;;;;;17.27;42.09;99713.82;1806099;79;21121;-65
2021/04/22 10:38:01;;;;;;;4.35;3.95;;;;;;;17.19;42.52;99729.44;1806231;79;21146;-68
2021/04/22 10:40:32;;;;;;;6.33;5.47;;;;;;;17.12;43.73;99725.47;1806136;79;21153;-68
2021/04/22 10:43:06;;;;;;;6.12;4.85;;;;;;;16.92;44.94;99711.05;1805421;79;22660;-64
2021/04/22 10:45:37;;;;;;;12.58;5.55;;;;;;;16.80;44.81;99713.90;1779607;79;20987;-67
2021/04/22 10:48:06;;;;;;;7.58;5.47;;;;;;;16.73;45.84;99724.31;1804967;79;21110;-67
2021/04/22 10:50:40;;;;;;;9.38;7.15;;;;;;;16.63;46.09;99710.85;1787023;79;21144;-65
2021/04/22 10:53:11;;;;;;;5.60;4.28;;;;;;;16.50;47.62;99720.45;1801458;79;21182;-65
2021/04/22 10:55:43;;;;;;;5.72;4.83;;;;;;;16.30;48.55;99703.03;1797263;79;21209;-65
2021/04/22 10:58:32;;;;;;;10.03;5.15;;;;;;;16.02;46.48;99723.62;1745466;80;21022;-66
2021/04/22 11:01:04;;;;;;;8.40;6.53;;;;;;;15.89;48.88;99737.31;1751817;81;21156;-65
2021/04/22 11:03:46;;;;;;;7.30;5.03;;;;;;;15.71;50.64;99746.12;1752119;81;21097;-67
2021/04/22 11:06:20;;;;;;;5.50;4.97;;;;;;;15.54;51.19;99766.83;1784506;79;20996;-68
2021/04/22 11:08:51;;;;;;;10.05;6.70;;;;;;;15.37;53.07;99777.75;1778619;79;22065;-68
2021/04/22 11:11:24;;;;;;;4.55;3.90;;;;;;;15.15;54.60;99797.92;1747681;80;21159;-69
2021/04/22 11:14:12;;;;;;;4.47;3.83;;;;;;;14.90;54.96;99778.22;1788405;79;21654;-65
2021/04/22 11:16:53;;;;;;;7.08;4.55;;;;;;;14.61;55.71;99767.20;1764858;79;21178;-66
2021/04/22 11:19:32;;;;;;;4.47;4.08;;;;;;;14.34;56.87;99760.16;1757468;79;21151;-67
2021/04/22 11:22:08;;;;;;;5.12;4.55;;;;;;;14.23;59.91;99755.87;1777571;79;21003;-67
2021/04/22 11:24:41;;;;;;;5.17;4.20;;;;;;;14.22;60.31;99756.95;1778351;79;21628;-65
2021/04/22 11:27:14;;;;;;;4.72;4.33;;;;;;;14.21;58.47;99744.50;1776062;79;21184;-67
2021/04/22 11:29:57;;;;;;;4.50;4.10;;;;;;;14.30;58.13;99731.22;1775807;79;21189;-64
2021/04/22 11:32:34;;;;;;;5.70;5.00;;;;;;;14.39;58.33;99730.42;1790553;79;21154;-68
2021/04/22 11:35:19;;;;;;;5.30;4.80;;;;;;;14.51;57.52;99731.50;1765320;79;21178;-68
2021/04/22 11:37:53;;;;;;;5.17;4.72;;;;;;;14.61;56.18;99728.77;1778676;79;20944;-67
2021/04/22 11:40:28;;;;;;;7.75;5.37;;;;;;;14.73;55.70;99733.31;1778553;79;21083;-68